Time;durP1;ratioP1;P1;durP2;ratioP2;P2;SDS_P1;SDS_P2;PMS_P1;PMS_P2;Temp;Humidity;BMP_temperature;BMP_pressure;BME280_temperature;BME280_humidity;BME280_pressure;Samples;Min_cycle;Max_cycle;Signal;HPM_P1;HPM_P2
2022/03/22 00:01:30;;;;;;;38.03;15.87;;;;;;;5.83;41.35;102265.98;124892;1099;104330;-78
2022/03/22 00:04:02;;;;;;;32.70;16.03;;;;;;;5.83;41.25;102267.66;124181;1099;104284;-80
2022/03/22 00:06:32;;;;;;;35.20;16.00;;;;;;;5.79;41.31;102266.50;124086;1099;104845;-80
2022/03/22 00:09:01;;;;;;;32.23;15.40;;;;;;;5.78;41.72;102263.77;124584;1098;104242;-80
2022/03/22 00:11:33;;;;;;;29.50;14.67;;;;;;;5.73;41.44;102269.53;123800;1099;104434;-80
2022/03/22 00:14:06;;;;;;;29.60;14.50;;;;;;;5.70;41.71;102263.13;123885;1099;104380;-80
2022/03/22 00:16:35;;;;;;;34.57;15.50;;;;;;;5.67;41.74;102257.66;124135;1099;104267;-80
2022/03/22 00:19:05;;;;;;;33.83;16.60;;;;;;;5.64;41.72;102258.34;124222;1099;104290;-81
2022/03/22 00:21:36;;;;;;;34.95;16.90;;;;;;;5.63;42.10;102259.11;123880;1099;104277;-80
2022/03/22 00:24:07;;;;;;;33.47;16.47;;;;;;;5.58;41.93;102250.91;123911;1099;104296;-81
2022/03/22 00:26:38;;;;;;;43.50;16.90;;;;;;;5.56;42.34;102254.16;124054;1099;104396;-80
2022/03/22 00:29:08;;;;;;;32.90;16.20;;;;;;;5.53;42.15;102252.23;123883;1098;104569;-80
2022/03/22 00:31:39;;;;;;;37.65;17.65;;;;;;;5.50;42.23;102249.37;123854;1099;104324;-81
2022/03/22 00:34:13;;;;;;;36.33;16.93;;;;;;;5.48;42.34;102245.70;123913;1099;104287;-80
2022/03/22 00:36:41;;;;;;;;;;;;;;;5.44;43.32;102250.52;124159;1099;104300;-80
2022/03/22 00:39:12;;;;;;;42.60;17.67;;;;;;;5.40;42.92;102242.45;124434;1097;104370;-79
2022/03/22 00:41:41;;;;;;;37.27;17.27;;;;;;;5.37;42.17;102247.40;124477;1099;104159;-80
2022/03/22 00:44:13;;;;;;;36.10;16.70;;;;;;;5.35;42.38;102243.77;123902;1099;104309;-80
2022/03/22 00:46:45;;;;;;;34.55;16.70;;;;;;;5.34;42.52;102248.84;123996;1099;104344;-80
2022/03/22 00:49:18;;;;;;;34.17;16.30;;;;;;;5.31;42.35;102240.77;123988;1099;104255;-81
2022/03/22 00:51:47;;;;;;;33.30;15.93;;;;;;;5.28;42.64;102240.52;124060;1099;104322;-80
2022/03/22 00:54:17;;;;;;;37.00;16.80;;;;;;;5.26;42.79;102236.87;124210;1099;104219;-80
2022/03/22 00:56:48;;;;;;;38.13;17.23;;;;;;;5.24;42.89;102243.66;123981;1099;104311;-80
2022/03/22 01:02:07;;;;;;;38.25;16.95;;;;;;;5.20;43.32;102230.38;124229;1099;104294;-80
2022/03/22 01:04:37;;;;;;;33.97;16.40;;;;;;;5.18;43.45;102233.63;124487;1099;104293;-80
2022/03/22 01:07:08;;;;;;;34.70;16.20;;;;;;;5.17;43.30;102242.20;124517;1099;104262;-80
2022/03/22 01:09:39;;;;;;;37.30;18.43;;;;;;;5.15;43.50;102235.97;124568;1099;104367;-80
2022/03/22 01:12:10;;;;;;;37.40;16.73;;;;;;;5.14;43.08;102234.13;124555;1099;104240;-80
2022/03/22 01:14:41;;;;;;;37.63;17.67;;;;;;;5.13;43.99;102232.33;124376;1099;104264;-80
2022/03/22 01:17:11;;;;;;;39.93;18.23;;;;;;;5.11;43.73;102240.01;124150;1099;104371;-80
2022/03/22 01:19:42;;;;;;;34.20;16.50;;;;;;;5.07;43.90;102231.81;124487;1099;104351;-80
2022/03/22 01:22:15;;;;;;;38.27;18.03;;;;;;;5.06;43.96;102232.58;124271;1099;104290;-80
2022/03/22 01:24:45;;;;;;;35.97;17.90;;;;;;;5.04;43.84;102227.23;124415;1099;108177;-80
2022/03/22 01:27:16;;;;;;;35.93;17.07;;;;;;;5.03;44.18;102228.94;124186;1099;104335;-80
2022/03/22 01:29:49;;;;;;;37.10;18.25;;;;;;;5.02;44.19;102232.31;124525;1099;104235;-80
2022/03/22 01:32:20;;;;;;;37.57;18.37;;;;;;;5.01;44.12;102220.07;123988;1099;104302;-80
2022/03/22 01:34:50;;;;;;;33.63;17.43;;;;;;;4.99;43.95;102216.44;124397;1099;104342;-80
2022/03/22 01:37:21;;;;;;;36.30;16.90;;;;;;;4.99;44.44;102218.14;123992;1098;104332;-79
2022/03/22 01:39:51;;;;;;;42.10;18.13;;;;;;;4.98;44.28;102219.80;124253;1099;104252;-81
2022/03/22 01:42:22;;;;;;;37.53;18.77;;;;;;;4.97;44.79;102222.28;123992;1099;104370;-81
2022/03/22 01:44:53;;;;;;;37.50;17.83;;;;;;;4.94;44.32;102217.75;124542;1099;104239;-80
2022/03/22 01:47:25;;;;;;;34.77;17.40;;;;;;;4.94;44.84;102211.61;124223;1099;104466;-80
2022/03/22 01:49:57;;;;;;;37.07;18.33;;;;;;;4.92;44.94;102214.08;124600;1097;104210;-80
2022/03/22 01:52:28;;;;;;;39.90;18.35;;;;;;;4.89;44.22;102207.71;124389;1099;104239;-80
2022/03/22 01:54:57;;;;;;;39.47;18.53;;;;;;;4.88;45.79;102208.48;123813;1099;104345;-81
2022/03/22 01:57:30;;;;;;;39.03;18.37;;;;;;;4.85;45.12;102209.14;124387;1099;104312;-80
2022/03/22 02:00:02;;;;;;;39.57;18.23;;;;;;;4.84;45.25;102204.71;124046;1099;104767;-80
2022/03/22 02:08:11;;;;;;;38.63;19.13;;;;;;;4.79;45.65;102203.42;124556;1099;104638;-80
2022/03/22 02:10:40;;;;;;;35.83;19.30;;;;;;;4.75;44.85;102204.81;124310;1099;104268;-81
2022/03/22 02:13:10;;;;;;;37.97;18.93;;;;;;;4.74;44.83;102196.92;124033;1099;104507;-80
2022/03/22 02:15:40;;;;;;;40.93;19.30;;;;;;;4.72;45.42;102193.25;123932;1099;104862;-81
2022/03/22 02:18:11;;;;;;;39.37;19.10;;;;;;;4.67;45.61;102196.39;124603;1099;104947;-81
2022/03/22 02:20:41;;;;;;;38.07;18.80;;;;;;;4.65;45.97;102197.92;123958;1099;104341;-80
2022/03/22 02:23:19;;;;;;;42.07;19.23;;;;;;;4.64;45.43;102192.59;124078;1099;104376;-81
2022/03/22 02:25:49;;;;;;;39.00;20.10;;;;;;;4.62;45.89;102191.55;124276;1099;118891;-80
2022/03/22 02:28:21;;;;;;;41.70;20.25;;;;;;;4.59;45.54;102202.59;124424;1099;104341;-80
2022/03/22 02:30:53;;;;;;;36.23;18.37;;;;;;;4.58;45.49;102199.85;124077;1099;104724;-80
2022/03/22 02:33:24;;;;;;;38.93;19.83;;;;;;;4.55;45.89;102192.72;123982;1099;104757;-81
2022/03/22 02:35:55;;;;;;;40.20;20.03;;;;;;;4.52;45.19;102200.25;124318;1099;104367;-80
2022/03/22 02:38:26;;;;;;;40.60;19.83;;;;;;;4.51;45.24;102195.81;123999;1099;104424;-80
2022/03/22 02:40:56;;;;;;;39.97;19.70;;;;;;;4.50;46.08;102197.52;124528;1099;104268;-81
2022/03/22 02:43:26;;;;;;;39.60;20.60;;;;;;;4.48;46.01;102192.95;124498;1096;104264;-81
2022/03/22 02:45:56;;;;;;;42.10;21.27;;;;;;;4.47;45.68;102197.25;124354;1099;104277;-80
2022/03/22 02:48:27;;;;;;;43.10;21.27;;;;;;;4.46;45.71;102199.71;124292;1099;104293;-80
2022/03/22 02:50:57;;;;;;;39.83;21.10;;;;;;;4.44;46.02;102199.58;124184;1099;104373;-80
2022/03/22 02:53:29;;;;;;;39.57;20.13;;;;;;;4.42;46.38;102200.21;124250;1099;104382;-80
2022/03/22 02:56:01;;;;;;;41.90;20.03;;;;;;;4.39;46.47;102198.24;124326;1097;104313;-80
2022/03/22 02:58:33;;;;;;;44.27;20.93;;;;;;;4.40;46.53;102193.98;124314;1099;104459;-81
2022/03/22 03:01:04;;;;;;;38.63;19.63;;;;;;;4.38;45.99;102198.11;124419;1099;104235;-80
2022/03/22 03:03:35;;;;;;;42.93;20.80;;;;;;;4.37;46.38;102201.51;124826;1099;104390;-80
2022/03/22 03:06:06;;;;;;;40.70;20.20;;;;;;;4.37;46.14;102199.80;124127;1099;104434;-80
2022/03/22 03:08:36;;;;;;;42.67;19.83;;;;;;;4.35;46.30;102192.64;124427;1099;104332;-81
2022/03/22 03:11:07;;;;;;;40.27;20.10;;;;;;;4.33;46.50;102195.11;124150;1099;104377;-80
2022/03/22 03:16:26;;;;;;;37.37;19.67;;;;;;;4.31;46.28;102194.97;124607;1099;105457;-80
2022/03/22 03:18:57;;;;;;;44.00;19.30;;;;;;;4.29;46.84;102204.33;124099;1099;104345;-81
2022/03/22 03:21:27;;;;;;;41.37;20.27;;;;;;;4.27;46.67;102202.36;124400;1098;104299;-80
2022/03/22 03:23:57;;;;;;;38.50;20.13;;;;;;;4.24;46.14;102213.41;124780;1099;104677;-80
2022/03/22 03:26:28;;;;;;;39.23;18.90;;;;;;;4.23;47.19;102214.18;124459;1098;104260;-80
2022/03/22 03:28:58;;;;;;;37.57;19.00;;;;;;;4.20;47.02;102208.71;124413;1097;104392;-81
2022/03/22 03:31:29;;;;;;;41.87;19.00;;;;;;;4.20;46.24;102205.21;124457;1098;104274;-79
2022/03/22 03:33:59;;;;;;;41.07;19.23;;;;;;;4.21;47.20;102212.24;124304;1099;104328;-80
2022/03/22 03:36:29;;;;;;;41.50;19.63;;;;;;;4.20;46.82;102211.31;124093;1099;104328;-80
2022/03/22 03:39:01;;;;;;;40.10;19.67;;;;;;;4.19;46.88;102216.37;124363;1099;104325;-80
2022/03/22 03:47:08;;;;;;;43.07;19.80;;;;;;;4.10;47.26;102217.38;123821;1099;104450;-80
2022/03/22 03:49:40;;;;;;;41.40;19.23;;;;;;;4.09;46.98;102225.04;124335;1099;104297;-80
2022/03/22 03:52:12;;;;;;;45.70;19.20;;;;;;;4.07;47.69;102224.91;124468;1099;104304;-80
2022/03/22 03:54:44;;;;;;;45.30;20.95;;;;;;;4.08;47.40;102225.80;124539;1099;104408;-80
2022/03/22 03:57:14;;;;;;;44.53;20.07;;;;;;;4.04;47.13;102222.03;124644;1099;104294;-80
2022/03/22 03:59:43;;;;;;;44.05;20.25;;;;;;;4.03;47.34;102227.98;124827;1099;104236;-80
2022/03/22 04:02:12;;;;;;;42.80;20.17;;;;;;;4.00;47.00;102221.62;124538;1099;104367;-80
2022/03/22 04:04:42;;;;;;;45.03;20.27;;;;;;;4.01;47.24;102236.44;125016;1099;104364;-80
2022/03/22 04:07:13;;;;;;;43.70;20.57;;;;;;;4.00;47.44;102234.61;124539;1099;104319;-80
2022/03/22 04:09:42;;;;;;;40.77;20.10;;;;;;;4.00;47.45;102226.81;124161;1099;104376;-80
2022/03/22 04:12:12;;;;;;;37.10;19.43;;;;;;;3.98;47.58;102233.56;124114;1098;104366;-79
2022/03/22 04:14:42;;;;;;;37.40;19.50;;;;;;;3.97;47.38;102230.03;124505;1099;104297;-79
2022/03/22 04:17:11;;;;;;;41.75;19.95;;;;;;;3.98;48.67;102239.66;124399;1098;104296;-79
2022/03/22 04:19:41;;;;;;;39.17;20.10;;;;;;;3.96;47.89;102236.92;124754;1099;104216;-80
2022/03/22 04:22:11;;;;;;;40.10;19.50;;;;;;;3.98;48.26;102238.77;124070;1099;104409;-79
2022/03/22 04:24:42;;;;;;;42.37;20.07;;;;;;;3.98;47.98;102237.06;124044;1099;104357;-80
2022/03/22 04:32:48;;;;;;;43.43;20.00;;;;;;;4.03;47.47;102238.38;124712;1099;104380;-80
2022/03/22 04:35:31;;;;;;;71.53;21.83;;;;;;;4.05;47.98;102244.65;124525;1099;104326;-80
2022/03/22 04:38:01;;;;;;;83.60;24.30;;;;;;;4.06;48.32;102246.45;124052;1099;104351;-81
2022/03/22 04:40:32;;;;;;;54.47;20.83;;;;;;;4.08;48.44;102243.98;124517;1099;104334;-80
2022/03/22 04:43:02;;;;;;;50.43;20.37;;;;;;;4.11;48.79;102250.39;123996;1099;104316;-80
2022/03/22 04:45:32;;;;;;;56.70;20.93;;;;;;;4.12;48.50;102251.30;124111;1099;104511;-79
2022/03/22 04:48:02;;;;;;;45.20;20.03;;;;;;;4.16;47.72;102256.00;124019;1099;104403;-79
2022/03/22 04:50:34;;;;;;;46.07;19.83;;;;;;;4.22;47.85;102266.91;124001;1099;104373;-80
2022/03/22 04:58:36;;;;;;;44.83;20.67;;;;;;;4.34;48.32;102261.91;123950;1099;104220;-80
2022/03/22 05:01:06;;;;;;;44.67;19.20;;;;;;;4.39;48.87;102263.22;124234;1099;104219;-79
2022/03/22 05:03:36;;;;;;;42.37;18.50;;;;;;;4.46;48.74;102269.90;123711;1099;104280;-79
2022/03/22 05:06:28;;;;;;;44.40;18.87;;;;;;;4.51;48.73;102268.61;124333;1099;104217;-79
2022/03/22 05:09:00;;;;;;;43.57;18.80;;;;;;;4.57;48.60;102276.95;123950;1099;104807;-80
2022/03/22 05:11:32;;;;;;;41.37;18.17;;;;;;;4.63;48.83;102267.09;124008;1099;104422;-78
2022/03/22 05:14:02;;;;;;;36.77;18.23;;;;;;;4.70;49.21;102270.23;123832;1099;105624;-79
2022/03/22 05:16:35;;;;;;;38.80;18.50;;;;;;;4.78;48.54;102271.80;123950;1099;104360;-80
2022/03/22 05:19:06;;;;;;;40.50;20.20;;;;;;;4.85;49.48;102274.17;124202;1099;104469;-80
2022/03/22 05:21:39;;;;;;;38.83;19.37;;;;;;;4.92;49.13;102276.52;124482;1099;104239;-79
2022/03/22 05:24:10;;;;;;;42.77;19.93;;;;;;;4.98;48.86;102279.64;124376;1098;104373;-80
2022/03/22 05:26:42;;;;;;;46.93;21.00;;;;;;;5.07;49.48;102283.84;124085;1099;104370;-81
2022/03/22 05:29:11;;;;;;;41.27;19.07;;;;;;;5.13;49.35;102279.17;124214;1098;104274;-80
2022/03/22 05:31:43;;;;;;;41.13;18.97;;;;;;;5.21;49.19;102285.94;124119;1099;104246;-80
2022/03/22 05:34:12;;;;;;;38.90;18.83;;;;;;;5.29;49.26;102289.20;124065;1099;104364;-80
2022/03/22 05:36:44;;;;;;;37.67;18.87;;;;;;;5.36;49.62;102287.25;124030;1099;104350;-79
2022/03/22 05:39:14;;;;;;;42.13;18.07;;;;;;;5.45;49.47;102283.59;123818;1097;104656;-80
2022/03/22 05:41:45;;;;;;;40.40;19.50;;;;;;;5.54;49.27;102285.28;123608;1098;104736;-81
2022/03/22 05:44:17;;;;;;;37.13;18.10;;;;;;;5.65;49.91;102291.39;124116;1099;104277;-78
2022/03/22 05:46:46;;;;;;;37.73;17.17;;;;;;;5.80;49.50;102288.24;123733;1098;104357;-79
2022/03/22 05:49:16;;;;;;;35.53;17.53;;;;;;;5.89;50.00;102297.77;123911;1099;104279;-81
2022/03/22 05:51:47;;;;;;;38.67;17.13;;;;;;;6.00;49.88;102297.76;124057;1099;104493;-77
2022/03/22 05:54:18;;;;;;;36.10;16.53;;;;;;;6.13;49.80;102297.10;123688;1098;104405;-79
2022/03/22 05:56:49;;;;;;;35.75;16.40;;;;;;;6.22;49.88;102297.86;123734;1098;104845;-80
2022/03/22 05:59:17;;;;;;;32.80;15.70;;;;;;;6.32;49.46;102307.34;123776;1099;104351;-79
2022/03/22 06:01:47;;;;;;;35.30;15.87;;;;;;;6.42;49.54;102313.43;123782;1099;104345;-81
2022/03/22 06:04:19;;;;;;;35.17;16.27;;;;;;;6.52;50.26;102302.03;123767;1099;104373;-80
2022/03/22 06:06:51;;;;;;;39.30;16.83;;;;;;;6.61;49.84;102294.06;123552;1099;104226;-80
2022/03/22 06:09:21;;;;;;;34.70;15.70;;;;;;;6.71;49.95;102296.59;124217;1099;104338;-81
2022/03/22 06:11:51;;;;;;;34.00;16.05;;;;;;;6.83;50.22;102297.58;123959;1099;104303;-81
2022/03/22 06:14:22;;;;;;;34.33;14.03;;;;;;;6.95;50.23;102302.88;123958;1099;104349;-79
2022/03/22 06:16:52;;;;;;;34.33;15.03;;;;;;;7.06;50.47;102301.11;123781;1099;104367;-79
2022/03/22 06:19:22;;;;;;;31.45;14.35;;;;;;;7.18;50.01;102295.92;123722;1099;104348;-79
2022/03/22 06:21:53;;;;;;;32.80;14.47;;;;;;;7.29;50.00;102299.37;123747;1099;104293;-80
2022/03/22 06:24:23;;;;;;;29.43;13.20;;;;;;;7.39;50.04;102301.91;123876;1099;104466;-80
2022/03/22 06:26:55;;;;;;;29.07;12.63;;;;;;;7.48;50.26;102302.62;124163;1099;104284;-80
2022/03/22 06:29:25;;;;;;;33.17;12.67;;;;;;;7.59;49.98;102299.91;124127;1099;104320;-80
2022/03/22 06:31:58;;;;;;;28.53;12.83;;;;;;;7.70;49.65;102299.05;123911;1099;104700;-81
2022/03/22 06:34:32;;;;;;;28.43;11.87;;;;;;;7.83;49.96;102298.27;124078;1099;104353;-78
2022/03/22 06:37:03;;;;;;;28.17;11.50;;;;;;;7.97;49.76;102297.59;123933;1098;104384;-80
2022/03/22 06:39:34;;;;;;;26.83;11.50;;;;;;;8.05;49.82;102298.16;124630;1098;104299;-80
2022/03/22 06:42:05;;;;;;;29.00;11.47;;;;;;;8.17;49.32;102299.08;124125;1098;104242;-82
2022/03/22 06:44:40;;;;;;;25.50;10.30;;;;;;;8.30;49.28;102299.98;124659;1099;104293;-81
2022/03/22 06:47:11;;;;;;;27.35;10.25;;;;;;;8.42;48.89;102309.64;124312;1099;104213;-79
2022/03/22 06:49:43;;;;;;;28.63;10.50;;;;;;;8.55;48.78;102300.11;124313;1099;104424;-80
2022/03/22 06:52:14;;;;;;;26.07;10.23;;;;;;;8.68;49.22;102305.44;124279;1098;104322;-81
2022/03/22 06:54:45;;;;;;;27.45;10.25;;;;;;;8.78;49.00;102309.62;123810;1099;104341;-81
2022/03/22 06:57:18;;;;;;;32.30;10.90;;;;;;;8.90;48.74;102300.03;125450;1099;104297;-84
2022/03/22 06:59:51;;;;;;;26.10;10.23;;;;;;;9.02;48.45;102302.59;124331;1099;104307;-84
2022/03/22 07:02:25;;;;;;;26.13;10.27;;;;;;;9.10;48.16;102308.37;124172;1099;104376;-81
2022/03/22 07:04:57;;;;;;;25.57;10.30;;;;;;;9.18;47.35;102317.70;123911;1099;104328;-81
2022/03/22 07:07:26;;;;;;;23.10;9.67;;;;;;;9.30;47.33;102305.46;124259;1099;104428;-82
2022/03/22 07:09:57;;;;;;;27.03;10.40;;;;;;;9.38;47.15;102312.92;124721;1099;104176;-81
2022/03/22 07:12:27;;;;;;;26.37;11.23;;;;;;;9.46;46.97;102311.77;124600;1097;104220;-82
2022/03/22 07:15:07;;;;;;;29.67;10.53;;;;;;;9.53;47.38;102311.37;124822;1099;104245;-79
2022/03/22 07:17:46;;;;;;;23.87;9.63;;;;;;;9.63;46.22;102315.52;124249;1099;104168;-81
2022/03/22 07:20:23;;;;;;;30.15;10.10;;;;;;;9.63;46.06;102310.28;124262;1099;104245;-79
2022/03/22 07:22:55;;;;;;;27.73;10.07;;;;;;;9.78;45.59;102311.33;124220;1099;104211;-80
2022/03/22 07:25:29;;;;;;;;;;;;;;;9.92;45.79;102303.50;123855;1099;104340;-82
2022/03/22 07:28:01;;;;;;;25.37;10.33;;;;;;;10.05;46.30;102309.67;124475;1099;104242;-81
2022/03/22 07:30:37;;;;;;;25.77;10.43;;;;;;;10.16;45.59;102306.83;124140;1098;104837;-79
2022/03/22 07:33:06;;;;;;;26.07;10.13;;;;;;;10.30;44.45;102316.55;123900;1098;104280;-81
2022/03/22 07:35:37;;;;;;;31.27;10.63;;;;;;;10.43;45.47;102300.81;124114;1099;104367;-78
2022/03/22 07:38:08;;;;;;;21.97;8.90;;;;;;;10.49;43.55;102309.91;123967;1099;104335;-81
2022/03/22 07:40:46;;;;;;;24.17;8.80;;;;;;;10.54;44.14;102303.23;124475;1099;102981;-78
2022/03/22 07:43:16;;;;;;;26.55;9.20;;;;;;;10.63;44.33;102308.15;124419;1099;104293;-79
2022/03/22 07:45:51;;;;;;;26.07;9.00;;;;;;;10.73;44.50;102305.31;124257;1099;104536;-79
2022/03/22 07:48:29;;;;;;;23.33;9.20;;;;;;;10.86;44.45;102301.74;124032;1099;104235;-79
2022/03/22 07:53:55;;;;;;;25.53;8.47;;;;;;;11.07;43.80;102296.95;123932;1099;104331;-79
2022/03/22 07:56:30;;;;;;;26.43;8.47;;;;;;;11.13;43.31;102287.72;123887;1099;104204;-80
2022/03/22 07:59:08;;;;;;;21.20;7.50;;;;;;;11.16;43.05;102284.38;123918;1099;104338;-82
2022/03/22 08:01:42;;;;;;;21.97;7.03;;;;;;;11.30;42.16;102291.38;124486;1099;104291;-82
2022/03/22 08:04:17;;;;;;;24.57;7.80;;;;;;;11.32;42.31;102283.59;123577;1102;104380;-82
2022/03/22 08:06:46;;;;;;;21.70;8.73;;;;;;;11.45;41.57;102287.87;124684;1102;104339;-78
2022/03/22 08:09:20;;;;;;;21.60;7.57;;;;;;;11.51;42.25;102290.87;123573;1102;104520;-78
2022/03/22 08:11:50;;;;;;;23.10;6.85;;;;;;;11.50;40.02;102284.72;124068;1099;104307;-78
2022/03/22 08:14:21;;;;;;;18.90;5.87;;;;;;;11.52;38.72;102279.55;123873;1099;104414;-78
2022/03/22 08:16:50;;;;;;;17.80;6.20;;;;;;;11.50;38.74;102286.45;124200;1099;104275;-80
2022/03/22 08:19:21;;;;;;;18.67;6.40;;;;;;;11.49;40.24;102288.15;123661;1102;104424;-78
2022/03/22 08:21:50;;;;;;;23.33;6.90;;;;;;;11.53;39.89;102280.45;123838;1099;104341;-80
2022/03/22 08:24:43;;;;;;;21.70;6.80;;;;;;;11.51;38.83;102275.09;124545;1099;104262;-82
2022/03/22 08:27:16;;;;;;;;;;;;;;;11.65;38.76;102279.45;124594;1099;104395;-79
2022/03/22 08:29:48;;;;;;;22.33;6.97;;;;;;;11.68;39.49;102281.37;123902;1099;104436;-80
2022/03/22 08:32:18;;;;;;;23.20;6.90;;;;;;;11.75;38.82;102287.89;123806;1099;104368;-77
2022/03/22 08:34:51;;;;;;;22.63;7.43;;;;;;;11.83;39.45;102284.02;123736;1099;104418;-80
2022/03/22 08:37:22;;;;;;;19.90;7.13;;;;;;;11.94;39.92;102272.42;124881;1099;104223;-80
2022/03/22 08:39:53;;;;;;;23.07;7.07;;;;;;;12.04;39.25;102274.78;124297;1099;104242;-77
2022/03/22 08:42:26;;;;;;;23.67;6.87;;;;;;;12.05;38.92;102271.31;124350;1099;104236;-79
2022/03/22 08:44:57;;;;;;;19.80;6.50;;;;;;;12.12;38.54;102276.94;124139;1099;104269;-79
2022/03/22 08:47:35;;;;;;;20.97;6.97;;;;;;;12.21;38.73;102275.73;123744;1099;104338;-81
2022/03/22 08:50:14;;;;;;;27.80;7.77;;;;;;;12.30;38.54;102269.20;123822;1099;104408;-82
2022/03/22 08:52:50;;;;;;;21.57;6.23;;;;;;;12.38;37.97;102265.27;124275;1099;104290;-80
2022/03/22 08:55:25;;;;;;;23.67;6.00;;;;;;;12.42;36.62;102277.80;124066;1097;104379;-79
2022/03/22 08:57:56;;;;;;;19.03;5.60;;;;;;;12.38;36.49;102252.11;124231;1099;104300;-78
2022/03/22 09:00:26;;;;;;;23.37;6.13;;;;;;;12.44;36.12;102259.45;123978;1099;104293;-78
2022/03/22 09:02:58;;;;;;;17.87;5.17;;;;;;;12.52;35.23;102264.31;123637;1099;104395;-78
2022/03/22 09:08:16;;;;;;;17.33;4.93;;;;;;;12.54;34.69;102254.79;123860;1099;104214;-80
2022/03/22 09:10:46;;;;;;;15.57;4.57;;;;;;;12.62;34.79;102254.28;123933;1099;104290;-79
2022/03/22 09:16:16;;;;;;;18.57;5.33;;;;;;;12.74;34.92;102240.05;123877;1099;104704;-77
2022/03/22 09:18:46;;;;;;;22.10;5.47;;;;;;;12.83;33.25;102244.04;123964;1099;104235;-77
2022/03/22 09:21:16;;;;;;;18.83;4.83;;;;;;;12.88;33.64;102248.71;123792;1098;104168;-77
2022/03/22 09:23:50;;;;;;;24.83;5.50;;;;;;;13.00;35.30;102242.31;123835;1098;104217;-81
2022/03/22 09:26:20;;;;;;;14.33;4.65;;;;;;;13.08;34.10;102238.35;123891;1099;104216;-78
2022/03/22 09:28:52;;;;;;;19.93;5.03;;;;;;;13.15;33.44;102255.39;123350;1099;104851;-79
2022/03/22 09:31:24;;;;;;;16.93;4.50;;;;;;;13.22;33.68;102234.70;123821;1099;104294;-80
2022/03/22 09:33:56;;;;;;;12.90;3.80;;;;;;;13.12;32.65;102242.97;124369;1099;104233;-82
2022/03/22 09:36:31;;;;;;;18.12;4.62;;;;;;;13.24;34.25;102237.42;124672;1099;104210;-80
2022/03/22 09:39:06;;;;;;;22.13;5.80;;;;;;;13.27;32.57;102224.41;123539;1100;104379;-79
2022/03/22 09:41:39;;;;;;;24.43;5.07;;;;;;;13.32;32.43;102254.54;123582;1099;104880;-80
2022/03/22 09:44:19;;;;;;;19.45;5.00;;;;;;;13.36;33.74;102240.73;123670;1099;104242;-78
2022/03/22 09:46:50;;;;;;;20.30;5.40;;;;;;;13.44;33.34;102225.31;123835;1102;104301;-79
2022/03/22 09:49:20;;;;;;;16.80;4.93;;;;;;;13.51;33.32;102229.16;123658;1102;105900;-78
2022/03/22 09:51:54;;;;;;;17.63;5.10;;;;;;;13.61;33.33;102234.98;123518;1099;104342;-79
2022/03/22 09:54:28;;;;;;;21.20;5.03;;;;;;;13.77;33.24;102238.41;123800;1099;104408;-80
2022/03/22 09:56:59;;;;;;;18.75;4.55;;;;;;;13.82;31.71;102251.02;123709;1099;104290;-78
2022/03/22 09:59:33;;;;;;;14.70;4.27;;;;;;;13.86;31.30;102236.23;123754;1099;104412;-78
2022/03/22 10:02:05;;;;;;;13.62;4.17;;;;;;;13.98;32.92;102225.39;123813;1097;104236;-78
2022/03/22 10:04:51;;;;;;;15.95;4.55;;;;;;;14.03;30.77;102230.05;123759;1099;104252;-79
2022/03/22 10:07:24;;;;;;;27.10;4.90;;;;;;;14.16;31.86;102225.37;123989;1099;104262;-78
2022/03/22 10:09:58;;;;;;;17.92;4.10;;;;;;;14.13;31.84;102215.59;124366;1099;104181;-79
2022/03/22 10:12:31;;;;;;;17.53;4.13;;;;;;;14.16;31.80;102214.80;124451;1099;104162;-79
2022/03/22 10:15:21;;;;;;;22.97;3.90;;;;;;;14.04;29.65;102236.25;124165;1099;104432;-79
2022/03/22 10:18:00;;;;;;;12.40;3.53;;;;;;;14.10;30.66;102209.23;124586;1099;104205;-79
2022/03/22 10:20:38;;;;;;;18.03;3.97;;;;;;;14.18;31.24;102202.61;124065;1099;104325;-79
2022/03/22 10:23:50;;;;;;;13.13;3.73;;;;;;;14.32;29.46;102219.08;124124;1099;104315;-79
2022/03/22 10:26:33;;;;;;;10.97;3.20;;;;;;;14.31;28.94;102218.19;124070;1099;104162;-79
2022/03/22 10:29:07;;;;;;;14.10;3.57;;;;;;;14.38;29.87;102217.66;124076;1099;104239;-80
2022/03/22 10:31:45;;;;;;;;;;;;;;;14.28;29.87;102210.12;124276;1099;104182;-79
2022/03/22 10:34:17;;;;;;;16.50;4.57;;;;;;;14.38;31.24;102211.45;123960;1099;104289;-79
2022/03/22 10:36:57;;;;;;;16.63;3.80;;;;;;;14.46;30.39;102209.17;123979;1099;104281;-79
2022/03/22 10:39:34;;;;;;;15.53;4.07;;;;;;;14.51;31.26;102199.75;123811;1099;104421;-78
2022/03/22 10:42:11;;;;;;;15.00;4.00;;;;;;;14.52;30.92;102189.26;124277;1098;104242;-77
2022/03/22 10:44:45;;;;;;;13.73;3.67;;;;;;;14.56;30.29;102206.14;123962;1099;104413;-79
2022/03/22 10:47:16;;;;;;;13.77;3.50;;;;;;;14.56;29.12;102206.14;124148;1099;104530;-78
2022/03/22 10:49:48;;;;;;;15.77;4.37;;;;;;;14.58;30.13;102183.33;123870;1099;104361;-79
2022/03/22 10:52:21;;;;;;;14.37;3.30;;;;;;;14.52;29.16;102207.75;123977;1099;104221;-79
2022/03/22 10:54:50;;;;;;;12.70;3.07;;;;;;;14.44;29.32;102206.46;124134;1099;104318;-79
2022/03/22 10:57:32;;;;;;;14.90;3.17;;;;;;;14.49;29.09;102191.76;123482;1099;104316;-78
2022/03/22 11:00:10;;;;;;;15.47;3.63;;;;;;;14.58;28.54;102172.77;124006;1099;104159;-78
2022/03/22 11:02:42;;;;;;;14.43;3.70;;;;;;;14.63;28.79;102180.94;123744;1099;104340;-78
2022/03/22 11:05:15;;;;;;;13.77;3.33;;;;;;;14.71;28.89;102174.29;124310;1099;104236;-77
2022/03/22 11:07:46;;;;;;;19.17;4.12;;;;;;;14.74;29.24;102169.14;124402;1099;104162;-78
2022/03/22 11:10:20;;;;;;;13.50;3.50;;;;;;;14.71;28.76;102190.14;124100;1099;104338;-79
2022/03/22 11:12:53;;;;;;;12.13;3.43;;;;;;;14.81;29.38;102183.53;125165;1099;104284;-80
2022/03/22 11:15:26;;;;;;;20.72;3.47;;;;;;;14.75;29.32;102173.58;124386;1099;104223;-79
2022/03/22 11:18:02;;;;;;;14.30;3.62;;;;;;;14.79;29.89;102164.03;124165;1099;104204;-78
2022/03/22 11:20:34;;;;;;;12.77;3.60;;;;;;;14.80;28.96;102156.17;124130;1099;104470;-79
2022/03/22 11:23:12;;;;;;;16.47;3.63;;;;;;;14.84;28.46;102168.70;124272;1100;104277;-79
2022/03/22 11:25:45;;;;;;;8.27;3.07;;;;;;;14.81;28.63;102151.81;124402;1099;104230;-79
2022/03/22 11:28:20;;;;;;;10.67;3.10;;;;;;;14.77;27.85;102184.22;124660;1099;104264;-79
2022/03/22 11:30:54;;;;;;;14.80;3.90;;;;;;;14.83;28.17;102152.78;124435;1099;104344;-80
2022/03/22 11:36:20;;;;;;;12.77;4.00;;;;;;;14.99;28.41;102149.07;124563;1099;104290;-78
2022/03/22 11:38:53;;;;;;;13.50;3.57;;;;;;;15.08;28.55;102152.12;124428;1099;104246;-77
2022/03/22 11:44:21;;;;;;;12.07;3.63;;;;;;;15.22;28.30;102139.49;124475;1099;104233;-79
2022/03/22 11:47:07;;;;;;;15.23;3.30;;;;;;;15.25;27.94;102134.34;124414;1099;104441;-77
2022/03/22 11:50:01;;;;;;;10.43;3.53;;;;;;;15.29;27.76;102141.58;124375;1099;104159;-78
2022/03/22 11:52:42;;;;;;;12.75;3.20;;;;;;;15.18;26.46;102132.29;124166;1099;104395;-79
2022/03/22 11:55:22;;;;;;;10.77;4.10;;;;;;;15.21;27.97;102128.02;123941;1099;104489;-78
2022/03/22 11:57:53;;;;;;;15.20;3.47;;;;;;;15.26;28.03;102122.94;124054;1099;104376;-77
2022/03/22 12:00:51;;;;;;;11.67;3.23;;;;;;;15.26;27.09;102120.29;124177;1099;104229;-78
2022/03/22 12:03:28;;;;;;;11.90;3.05;;;;;;;15.32;27.89;102132.84;124237;1099;104361;-81
2022/03/22 12:06:16;;;;;;;12.43;3.53;;;;;;;15.31;27.29;102147.83;124583;1099;104354;-80
2022/03/22 12:08:48;;;;;;;10.57;3.10;;;;;;;15.21;27.13;102127.13;124365;1099;104239;-80